Time;durP1;ratioP1;P1;durP2;ratioP2;P2;SDS_P1;SDS_P2;PMS_P1;PMS_P2;Temp;Humidity;BMP_temperature;BMP_pressure;BME280_temperature;BME280_humidity;BME280_pressure;Samples;Min_cycle;Max_cycle;Signal;HPM_P1;HPM_P2
2022/05/03 00:01:42;;;;;;;6.07;4.53;;;;;;;8.95;60.88;101876.53;4973548;28;20161;-77
2022/05/03 00:04:29;;;;;;;12.30;4.22;;;;;;;8.92;61.40;101873.88;4980274;28;20133;-77
2022/05/03 00:07:10;;;;;;;6.75;4.30;;;;;;;8.90;61.31;101869.47;4974898;28;20067;-77
2022/05/03 00:09:50;;;;;;;8.32;4.28;;;;;;;8.85;61.31;101869.44;4973711;28;20094;-77
2022/05/03 00:12:20;;;;;;;6.00;4.20;;;;;;;8.81;62.08;101870.34;4976494;28;20054;-77
2022/05/03 00:14:50;;;;;;;8.95;4.47;;;;;;;8.77;62.84;101869.44;4977401;28;20069;-77
2022/05/03 00:17:18;;;;;;;9.25;4.30;;;;;;;8.72;62.29;101868.53;4976524;28;20493;-77
2022/05/03 00:19:44;;;;;;;8.15;3.85;;;;;;;8.67;62.78;101857.09;4963499;28;20110;-77
2022/05/03 00:22:14;;;;;;;11.10;4.75;;;;;;;8.63;62.82;101859.72;4972083;28;20046;-77
2022/05/03 00:24:43;;;;;;;7.57;4.90;;;;;;;8.60;63.20;101860.59;4981042;28;20022;-77
2022/05/03 00:27:09;;;;;;;9.18;4.30;;;;;;;8.54;62.85;101855.31;4976078;28;20364;-77
2022/05/03 00:29:35;;;;;;;8.40;5.03;;;;;;;8.51;62.48;101860.59;4971656;28;20126;-77
2022/05/03 00:32:04;;;;;;;6.70;4.03;;;;;;;8.46;62.41;101857.06;4992763;28;20083;-77
2022/05/03 00:34:33;;;;;;;8.05;4.78;;;;;;;8.40;62.51;101849.97;4980761;28;20030;-77
2022/05/03 00:37:00;;;;;;;6.93;5.00;;;;;;;8.39;62.91;101848.19;4972898;28;20538;-77
2022/05/03 00:39:26;;;;;;;8.23;4.07;;;;;;;8.36;63.36;101840.28;4971665;28;20830;-77
2022/05/03 00:41:58;;;;;;;6.93;4.38;;;;;;;8.33;63.30;101838.50;4991480;28;20058;-77
2022/05/03 00:45:00;;;;;;;10.05;4.55;;;;;;;8.33;62.50;101843.78;5014498;28;20038;-77
2022/05/03 00:47:45;;;;;;;6.13;3.83;;;;;;;8.29;63.44;101844.63;4993878;28;20041;-77
2022/05/03 00:50:34;;;;;;;8.75;4.63;;;;;;;8.22;63.44;101847.25;5010178;28;20128;-77
2022/05/03 00:53:12;;;;;;;10.18;4.50;;;;;;;8.20;63.12;101847.22;5010512;28;20034;-77
2022/05/03 00:56:14;;;;;;;8.02;4.75;;;;;;;8.17;63.50;101847.22;4994214;28;20029;-77
2022/05/03 00:58:55;;;;;;;7.38;4.45;;;;;;;8.17;63.04;101849.88;4999423;28;20089;-77
2022/05/03 01:01:35;;;;;;;8.35;4.90;;;;;;;8.14;62.88;101852.50;5007463;28;20030;-77
2022/05/03 01:04:04;;;;;;;7.63;4.53;;;;;;;8.09;64.15;101847.19;5011291;28;20030;-77
2022/05/03 01:06:45;;;;;;;9.32;5.00;;;;;;;8.03;63.33;101846.28;5011590;28;20087;-77
2022/05/03 01:09:10;;;;;;;13.82;5.05;;;;;;;8.03;63.99;101856.84;5009710;28;20037;-77
2022/05/03 01:11:36;;;;;;;6.50;4.30;;;;;;;7.99;63.67;101848.03;4993525;28;20368;-77
2022/05/03 01:14:32;;;;;;;8.35;4.32;;;;;;;7.95;64.05;101851.53;4993413;28;20105;-77
2022/05/03 01:16:59;;;;;;;6.38;4.43;;;;;;;7.91;63.89;101853.28;5009722;28;20117;-77
2022/05/03 01:20:03;;;;;;;6.40;4.38;;;;;;;7.89;62.43;101846.22;5011913;28;20037;-77
2022/05/03 01:22:43;;;;;;;7.00;4.40;;;;;;;7.85;63.12;101847.94;5015713;28;20037;-77
2022/05/03 01:25:27;;;;;;;5.72;4.10;;;;;;;7.83;63.37;101856.72;5011069;28;20029;-77
2022/05/03 01:28:03;;;;;;;5.03;4.10;;;;;;;7.80;64.76;101851.44;5011103;28;20026;-77
2022/05/03 01:30:31;;;;;;;8.10;4.22;;;;;;;7.77;64.24;101847.03;5011630;28;20084;-77
2022/05/03 01:33:08;;;;;;;7.80;4.35;;;;;;;7.73;63.66;101853.16;4979304;28;20367;-77
2022/05/03 01:35:39;;;;;;;10.57;4.75;;;;;;;7.69;64.13;101852.25;4996015;28;20034;-75
2022/05/03 01:38:32;;;;;;;6.55;4.20;;;;;;;7.69;63.33;101843.44;5010927;28;20036;-76
2022/05/03 01:41:14;;;;;;;5.60;4.32;;;;;;;7.64;63.70;101838.19;5009419;28;20053;-75
2022/05/03 01:43:59;;;;;;;6.18;3.92;;;;;;;7.62;63.31;101837.28;4993148;28;20058;-75
2022/05/03 01:46:29;;;;;;;6.97;3.63;;;;;;;7.58;64.62;101843.41;5010876;28;20357;-75
2022/05/03 01:52:19;;;;;;;9.25;4.20;;;;;;;7.53;64.29;101842.47;5010885;28;20033;-75
2022/05/03 01:55:28;;;;;;;6.38;4.07;;;;;;;7.47;63.93;101845.97;5009089;28;20026;-75
2022/05/03 01:58:27;;;;;;;7.05;4.28;;;;;;;7.44;64.28;101831.88;4968269;28;20208;-75
2022/05/03 02:01:15;;;;;;;6.40;4.57;;;;;;;7.38;63.91;101843.25;5009094;28;20116;-75
2022/05/03 02:03:49;;;;;;;5.45;3.92;;;;;;;7.33;63.36;101845.84;5009204;28;20346;-75
2022/05/03 02:06:20;;;;;;;8.00;4.43;;;;;;;7.27;63.93;101840.56;5009141;28;20029;-75
2022/05/03 02:09:00;;;;;;;7.38;4.65;;;;;;;7.25;64.34;101844.91;5010449;28;20026;-75
2022/05/03 02:11:51;;;;;;;8.18;4.03;;;;;;;7.23;63.80;101846.66;5010776;28;20057;-75
2022/05/03 02:14:44;;;;;;;8.77;4.13;;;;;;;7.15;63.26;101843.09;5012837;28;20381;-75
2022/05/03 02:17:46;;;;;;;5.43;4.13;;;;;;;7.10;64.11;101844.81;5013410;28;20116;-75
2022/05/03 02:20:33;;;;;;;9.10;4.22;;;;;;;7.04;64.53;101842.09;5009192;28;20065;-75
2022/05/03 02:23:13;;;;;;;6.43;4.03;;;;;;;7.01;64.24;101842.94;4992739;28;20033;-75
2022/05/03 02:26:13;;;;;;;6.28;4.45;;;;;;;6.95;64.22;101827.13;5009189;28;20390;-75
2022/05/03 02:28:47;;;;;;;6.55;4.25;;;;;;;6.86;64.43;101842.81;4991822;28;20117;-75
2022/05/03 02:31:54;;;;;;;5.88;4.28;;;;;;;6.86;65.14;101834.91;5015162;28;20042;-75
2022/05/03 02:34:40;;;;;;;9.98;4.35;;;;;;;6.83;65.20;101835.78;4964682;28;20175;-75
2022/05/03 02:37:18;;;;;;;7.70;4.10;;;;;;;6.81;65.57;101839.25;5012902;28;20034;-75
2022/05/03 02:39:53;;;;;;;6.82;4.45;;;;;;;6.78;65.64;101836.63;5008732;28;20068;-75
2022/05/03 02:42:20;;;;;;;6.85;4.35;;;;;;;6.76;66.39;101847.13;4992830;28;20082;-75
2022/05/03 02:44:47;;;;;;;7.63;4.65;;;;;;;6.72;65.73;101839.16;5010299;28;20505;-75
2022/05/03 02:47:41;;;;;;;5.68;4.05;;;;;;;6.72;65.48;101837.41;4992906;28;20037;-75
2022/05/03 02:50:21;;;;;;;9.18;4.25;;;;;;;6.69;65.82;101834.75;5000734;28;20036;-75
2022/05/03 02:53:02;;;;;;;6.35;4.30;;;;;;;6.65;65.82;101840.84;5012702;28;20125;-75
2022/05/03 02:55:50;;;;;;;7.43;4.07;;;;;;;6.65;66.26;101849.66;5012770;28;20117;-75
2022/05/03 02:58:52;;;;;;;9.68;4.43;;;;;;;6.62;65.53;101846.97;5030596;28;20389;-74
2022/05/03 03:01:48;;;;;;;6.40;4.03;;;;;;;6.60;65.47;101851.34;5030994;28;20037;-75
2022/05/03 03:04:34;;;;;;;6.00;4.30;;;;;;;6.59;65.92;101846.94;5034030;28;20083;-75
2022/05/03 03:07:02;;;;;;;6.18;3.88;;;;;;;6.55;65.31;101844.25;5034147;28;20029;-75
2022/05/03 03:09:57;;;;;;;5.25;3.95;;;;;;;6.55;65.42;101844.25;5033730;28;20055;-75
2022/05/03 03:12:41;;;;;;;9.13;4.90;;;;;;;6.52;65.45;101842.47;5027072;28;20065;-75
2022/05/03 03:15:09;;;;;;;5.57;3.90;;;;;;;6.46;66.40;101838.03;5034105;28;20052;-75
2022/05/03 03:17:35;;;;;;;11.25;4.50;;;;;;;6.45;66.19;101841.53;5016042;28;20029;-74
2022/05/03 03:20:08;;;;;;;7.40;4.28;;;;;;;6.42;66.53;101844.13;5033663;28;20072;-75
2022/05/03 03:22:42;;;;;;;7.40;4.40;;;;;;;6.39;65.63;101846.72;5033736;28;20191;-75
2022/05/03 03:25:10;;;;;;;5.22;4.13;;;;;;;6.35;66.69;101844.91;5015936;28;20113;-74
2022/05/03 03:27:37;;;;;;;7.60;4.32;;;;;;;6.31;66.51;101840.50;5033682;28;20112;-75
2022/05/03 03:30:06;;;;;;;6.78;4.03;;;;;;;6.30;65.68;101843.09;5033655;28;20092;-75
2022/05/03 03:32:33;;;;;;;10.30;4.78;;;;;;;6.27;66.84;101841.31;5015764;28;20108;-75
2022/05/03 03:34:59;;;;;;;8.40;4.80;;;;;;;6.25;66.84;101843.03;5015830;28;20156;-74
2022/05/03 03:37:28;;;;;;;7.38;4.93;;;;;;;6.22;67.00;101846.50;5015812;28;20025;-74
2022/05/03 03:39:54;;;;;;;7.35;4.68;;;;;;;6.22;67.64;101848.25;5015058;28;20037;-74
2022/05/03 03:42:20;;;;;;;6.05;4.72;;;;;;;6.20;67.38;101834.22;5015595;28;20033;-74
2022/05/03 03:44:47;;;;;;;7.35;4.90;;;;;;;6.17;67.81;101839.44;5033218;28;20493;-75
2022/05/03 03:47:14;;;;;;;8.63;5.20;;;;;;;6.14;67.14;101831.53;5033601;28;20031;-74
2022/05/03 03:49:40;;;;;;;6.70;4.93;;;;;;;6.09;67.58;101826.19;5032282;28;20049;-74
2022/05/03 03:52:07;;;;;;;8.13;5.03;;;;;;;6.07;67.44;101829.69;4999119;28;20104;-74
2022/05/03 03:54:35;;;;;;;8.55;4.93;;;;;;;6.05;68.62;101831.41;5033113;28;20048;-74
2022/05/03 03:57:03;;;;;;;8.82;5.30;;;;;;;6.03;68.53;101834.00;5015529;28;20516;-75
2022/05/03 03:59:31;;;;;;;7.82;5.05;;;;;;;6.06;68.69;101827.88;5032872;28;20042;-74
2022/05/03 04:01:58;;;;;;;7.45;5.30;;;;;;;6.03;68.48;101834.91;5033187;28;20545;-74
2022/05/03 04:04:29;;;;;;;9.25;5.85;;;;;;;6.00;68.94;101842.72;5032788;28;20119;-74
2022/05/03 04:06:54;;;;;;;;;;;;;;;6.08;65.72;101841.94;5015573;28;20034;-75
2022/05/03 04:09:20;;;;;;;7.22;4.78;;;;;;;5.99;68.79;101838.34;5032660;28;19923;-75
2022/05/03 04:11:47;;;;;;;6.28;5.00;;;;;;;5.97;69.57;101836.56;5014847;28;20844;-75
2022/05/03 04:14:14;;;;;;;7.03;4.35;;;;;;;5.94;69.45;101841.78;5032379;28;20461;-74
2022/05/03 04:16:40;;;;;;;7.50;5.00;;;;;;;5.91;70.15;101841.69;5032610;28;20140;-74
2022/05/03 04:19:06;;;;;;;8.82;5.53;;;;;;;5.92;70.02;101840.84;5012625;28;20419;-74
2022/05/03 04:21:32;;;;;;;7.18;5.47;;;;;;;5.93;70.04;101837.34;5033182;28;20158;-74
2022/05/03 04:23:57;;;;;;;8.82;5.60;;;;;;;5.92;70.43;101840.84;5032477;28;20039;-74
2022/05/03 04:26:23;;;;;;;9.20;5.65;;;;;;;5.93;70.01;101835.59;4998476;28;20033;-74
2022/05/03 04:28:48;;;;;;;11.77;5.53;;;;;;;5.95;70.04;101844.41;5032427;28;20025;-75
2022/05/03 04:31:14;;;;;;;6.97;5.10;;;;;;;5.97;70.61;101841.81;5032478;28;20445;-75
2022/05/03 04:33:39;;;;;;;10.77;5.80;;;;;;;5.98;70.86;101835.69;5032258;28;20389;-74
2022/05/03 04:36:05;;;;;;;7.25;5.03;;;;;;;5.99;70.86;101842.72;4998195;28;20037;-74
2022/05/03 04:38:31;;;;;;;8.93;5.38;;;;;;;6.02;70.52;101842.75;5002417;28;20025;-75
2022/05/03 04:41:01;;;;;;;8.35;5.90;;;;;;;6.02;70.75;101838.38;5012474;28;20045;-74
2022/05/03 04:43:27;;;;;;;11.20;5.57;;;;;;;6.07;71.12;101842.81;5013696;28;20065;-74
2022/05/03 04:45:53;;;;;;;7.75;5.50;;;;;;;6.08;70.70;101844.56;5031507;28;20056;-74
2022/05/03 04:48:19;;;;;;;8.77;5.88;;;;;;;6.09;71.22;101849.88;5031497;28;20473;-75
2022/05/03 04:50:45;;;;;;;11.07;6.05;;;;;;;6.11;70.99;101847.22;4980173;28;20031;-75
2022/05/03 04:53:11;;;;;;;8.75;5.88;;;;;;;6.12;71.13;101852.53;4996514;28;20551;-74
2022/05/03 04:55:40;;;;;;;10.13;5.72;;;;;;;6.15;71.26;101856.94;4995711;28;20026;-75
2022/05/03 04:58:06;;;;;;;12.23;6.13;;;;;;;6.16;71.41;101851.72;5031047;28;20037;-75
2022/05/03 05:00:32;;;;;;;8.95;5.50;;;;;;;6.20;71.41;101852.63;5031290;28;20112;-75
2022/05/03 05:02:58;;;;;;;11.48;5.95;;;;;;;6.23;71.86;101857.91;5031165;28;20117;-75
2022/05/03 05:05:23;;;;;;;13.18;6.70;;;;;;;6.27;71.35;101856.22;5031153;28;20045;-75
2022/05/03 05:07:49;;;;;;;14.05;5.88;;;;;;;6.31;71.21;101861.53;5009967;28;20049;-75
2022/05/03 05:10:23;;;;;;;9.35;6.13;;;;;;;6.37;71.93;101855.47;5011520;28;20025;-75
2022/05/03 05:12:50;;;;;;;15.15;6.25;;;;;;;6.42;71.24;101862.53;5028237;28;20037;-75
2022/05/03 05:15:16;;;;;;;8.73;5.75;;;;;;;6.48;71.65;101861.75;5013014;28;20028;-75
2022/05/03 05:17:41;;;;;;;11.10;7.00;;;;;;;6.52;71.51;101860.88;5030898;28;20447;-75
2022/05/03 05:20:07;;;;;;;9.00;5.82;;;;;;;6.58;71.21;101868.00;5012924;28;20022;-74
2022/05/03 05:22:32;;;;;;;8.98;6.47;;;;;;;6.64;71.28;101875.94;5030938;28;20037;-74
2022/05/03 05:24:58;;;;;;;9.80;6.22;;;;;;;6.70;70.72;101875.13;5011266;28;20441;-74
2022/05/03 05:27:23;;;;;;;9.45;6.40;;;;;;;6.74;71.34;101877.81;5030921;28;20465;-74
2022/05/03 05:29:49;;;;;;;9.43;6.63;;;;;;;6.78;71.28;101882.25;5030081;28;20030;-74
2022/05/03 05:32:14;;;;;;;10.18;6.53;;;;;;;6.82;71.11;101883.13;5013418;28;20454;-74
2022/05/03 05:34:40;;;;;;;8.82;6.45;;;;;;;6.88;70.95;101885.84;5031394;28;20116;-74
2022/05/03 05:37:05;;;;;;;10.65;6.35;;;;;;;6.93;70.36;101886.78;5013517;28;20053;-74
2022/05/03 05:39:31;;;;;;;10.07;6.55;;;;;;;6.98;70.51;101890.34;5031111;28;20022;-74
2022/05/03 05:41:59;;;;;;;7.22;6.10;;;;;;;7.05;70.68;101891.28;5008623;28;20050;-74
2022/05/03 05:44:25;;;;;;;8.02;6.05;;;;;;;7.13;69.99;101878.19;4991714;28;20121;-74
2022/05/03 05:46:52;;;;;;;9.20;6.47;;;;;;;7.19;69.81;101879.09;4990774;28;20506;-74
2022/05/03 05:49:18;;;;;;;13.82;6.45;;;;;;;7.28;69.79;101880.94;5004191;28;20034;-74
2022/05/03 05:51:45;;;;;;;9.65;6.47;;;;;;;7.36;69.75;101887.16;4991869;28;20649;-74
2022/05/03 05:54:11;;;;;;;16.42;6.35;;;;;;;7.44;69.19;101881.94;4991661;28;20022;-74
2022/05/03 05:56:37;;;;;;;8.07;6.07;;;;;;;7.50;68.47;101882.00;4991731;28;20042;-74
2022/05/03 05:59:02;;;;;;;10.77;6.13;;;;;;;7.58;68.50;101882.94;4990250;28;20379;-74
2022/05/03 06:01:41;;;;;;;8.93;6.05;;;;;;;7.66;67.37;101889.13;4991788;28;20041;-74
2022/05/03 06:04:07;;;;;;;7.90;5.28;;;;;;;7.71;67.21;101875.97;4989216;28;20478;-74
2022/05/03 06:06:35;;;;;;;6.80;5.50;;;;;;;7.75;66.52;101877.78;4991374;28;20027;-75
2022/05/03 06:09:05;;;;;;;9.30;5.55;;;;;;;7.77;66.00;101877.81;5006043;28;20038;-74
2022/05/03 06:11:30;;;;;;;11.35;6.13;;;;;;;7.81;65.50;101871.66;4991559;28;20030;-74
2022/05/03 06:13:56;;;;;;;8.02;4.95;;;;;;;7.90;65.79;101869.06;4990127;28;20035;-74
2022/05/03 06:16:21;;;;;;;9.48;5.00;;;;;;;7.97;64.80;101876.16;4990160;28;20042;-75
2022/05/03 06:18:47;;;;;;;9.13;6.15;;;;;;;8.06;64.90;101878.84;4991338;28;20047;-75
2022/05/03 06:21:13;;;;;;;7.15;5.25;;;;;;;8.16;64.31;101879.78;4979605;28;20026;-75
2022/05/03 06:23:39;;;;;;;9.52;5.22;;;;;;;8.27;62.23;101885.09;4991572;28;20030;-75
2022/05/03 06:26:05;;;;;;;7.95;5.15;;;;;;;8.34;61.51;101885.13;4991608;28;20033;-75
2022/05/03 06:28:32;;;;;;;12.55;5.50;;;;;;;8.44;62.07;101879.91;4991280;28;20518;-75
2022/05/03 06:30:57;;;;;;;6.38;4.80;;;;;;;8.53;61.34;101882.56;4991673;28;20036;-75
2022/05/03 06:33:23;;;;;;;9.85;5.53;;;;;;;8.63;62.29;101883.47;4991359;28;20486;-75
2022/05/03 06:35:48;;;;;;;8.20;4.90;;;;;;;8.74;61.09;101890.56;4989541;28;20065;-75
2022/05/03 06:38:14;;;;;;;8.18;4.82;;;;;;;8.85;60.41;101887.94;4975245;28;20084;-80
2022/05/03 06:40:39;;;;;;;6.95;4.57;;;;;;;8.97;60.50;101887.09;4992447;28;20458;-80
2022/05/03 06:43:06;;;;;;;6.25;4.40;;;;;;;9.07;59.55;101883.56;4975482;28;20043;-80
2022/05/03 06:45:31;;;;;;;10.35;5.05;;;;;;;9.19;59.00;101882.69;4974203;28;20031;-80
2022/05/03 06:47:57;;;;;;;11.60;4.95;;;;;;;9.30;59.61;101883.59;4973984;28;20037;-80
2022/05/03 06:50:22;;;;;;;9.95;4.30;;;;;;;9.40;59.06;101882.72;4981313;28;20113;-80
2022/05/03 06:52:48;;;;;;;9.18;4.78;;;;;;;9.55;58.23;101887.13;4972747;28;20042;-80
2022/05/03 06:55:14;;;;;;;9.30;4.18;;;;;;;9.67;57.23;101889.75;4992689;28;20076;-81
2022/05/03 06:57:40;;;;;;;7.15;3.75;;;;;;;9.77;55.37;101887.97;4973986;28;20046;-81
2022/05/03 07:00:06;;;;;;;6.63;4.10;;;;;;;9.88;55.24;101899.41;4994619;28;20032;-81
2022/05/03 07:02:34;;;;;;;5.90;3.70;;;;;;;9.98;54.88;101897.59;4977127;28;20049;-80
2022/05/03 07:05:00;;;;;;;12.90;4.22;;;;;;;10.11;54.49;101893.16;4990148;28;20031;-81
2022/05/03 07:07:29;;;;;;;8.23;3.80;;;;;;;10.22;50.26;101895.78;4976167;28;20122;-81
2022/05/03 07:09:59;;;;;;;5.55;3.10;;;;;;;10.31;49.03;101899.31;4988119;28;20022;-81
2022/05/03 07:12:25;;;;;;;6.53;2.95;;;;;;;10.40;48.61;101892.22;4961549;28;20657;-81
2022/05/03 07:14:51;;;;;;;4.65;3.35;;;;;;;10.55;48.84;101894.78;4976869;28;20034;-81
2022/05/03 07:22:46;;;;;;;3.47;2.67;;;;;;;11.00;46.12;101886.56;4960402;28;20064;-81
2022/05/03 07:25:12;;;;;;;4.45;2.65;;;;;;;11.14;45.24;101884.72;4987208;28;20618;-81
2022/05/03 07:27:37;;;;;;;4.25;2.80;;;;;;;11.28;44.65;101887.28;4977353;28;20169;-82
2022/05/03 07:30:04;;;;;;;8.00;2.70;;;;;;;11.38;44.14;101889.81;4977492;28;20472;-83
2022/05/03 07:32:29;;;;;;;5.85;2.75;;;;;;;11.54;45.15;101889.69;4993550;28;20147;-83
2022/05/03 07:34:55;;;;;;;7.80;3.60;;;;;;;11.69;44.01;101889.53;5008971;28;20125;-83
2022/05/03 07:37:20;;;;;;;9.70;3.30;;;;;;;11.87;44.67;101892.94;4976332;28;20124;-83
2022/05/03 07:39:46;;;;;;;4.78;3.10;;;;;;;12.00;43.59;101892.78;5008646;28;20435;-83
2022/05/03 07:42:12;;;;;;;5.90;3.47;;;;;;;12.13;43.76;101890.88;5011408;28;20050;-83
2022/05/03 07:44:38;;;;;;;5.75;3.20;;;;;;;12.23;44.32;101896.97;5009190;28;20062;-83
2022/05/03 07:47:03;;;;;;;6.40;3.55;;;;;;;12.31;44.42;101899.50;4992296;28;20027;-83
2022/05/03 07:49:29;;;;;;;6.60;3.50;;;;;;;12.43;44.05;101892.28;5009163;28;20450;-83
2022/05/03 07:51:54;;;;;;;4.53;3.50;;;;;;;12.59;44.26;101900.94;4993077;28;20125;-83
2022/05/03 07:54:20;;;;;;;8.60;3.60;;;;;;;12.74;43.99;101902.50;4993036;28;20139;-84
2022/05/03 07:56:46;;;;;;;7.13;3.42;;;;;;;12.87;44.24;101903.22;4976853;28;20438;-84
2022/05/03 07:59:12;;;;;;;6.25;4.05;;;;;;;12.96;42.77;101896.84;4959675;28;20129;-84
2022/05/03 08:01:40;;;;;;;8.38;4.03;;;;;;;13.05;43.31;101899.38;4992310;28;20041;-83
2022/05/03 08:04:06;;;;;;;13.15;5.00;;;;;;;13.20;44.03;101890.28;4976497;28;20038;-84
2022/05/03 08:06:32;;;;;;;7.45;4.30;;;;;;;13.35;43.65;101892.72;4992744;28;20026;-84
2022/05/03 08:08:57;;;;;;;8.38;3.70;;;;;;;13.50;43.67;101891.59;4961411;28;20038;-84
2022/05/03 08:11:24;;;;;;;5.93;3.90;;;;;;;13.67;43.63;101883.31;4956985;28;20054;-83
2022/05/03 08:13:52;;;;;;;8.30;4.30;;;;;;;13.80;42.99;101897.28;4973359;28;20546;-84
2022/05/03 08:16:22;;;;;;;8.40;4.45;;;;;;;13.92;43.04;101900.63;4989355;28;20034;-84
2022/05/03 08:18:48;;;;;;;8.25;4.13;;;;;;;14.01;42.36;101888.03;4957171;28;20038;-85
2022/05/03 08:21:15;;;;;;;8.98;4.82;;;;;;;14.13;43.34;101896.66;4972597;28;20505;-79
2022/05/03 08:23:41;;;;;;;10.25;5.05;;;;;;;14.27;44.27;101899.03;4988541;28;20046;-79
2022/05/03 08:26:06;;;;;;;10.45;5.25;;;;;;;14.40;43.43;101913.00;4995523;28;20034;-78
2022/05/03 08:28:33;;;;;;;8.93;4.97;;;;;;;14.50;43.45;101903.00;4989353;28;20101;-77
2022/05/03 08:30:59;;;;;;;8.20;4.93;;;;;;;14.60;43.15;101897.47;4972622;28;20370;-79
2022/05/03 08:33:26;;;;;;;8.27;5.13;;;;;;;14.76;43.83;101902.47;4990608;28;20410;-78
2022/05/03 08:35:51;;;;;;;9.32;5.95;;;;;;;14.86;43.19;101898.72;4990341;28;20096;-78
2022/05/03 08:43:46;;;;;;;9.88;5.55;;;;;;;15.04;44.14;101905.41;4991089;28;20371;-78
2022/05/03 08:46:12;;;;;;;10.90;5.72;;;;;;;15.15;44.22;101899.78;4988649;28;20031;-79
2022/05/03 08:48:41;;;;;;;6.90;5.38;;;;;;;15.25;42.96;101895.97;4991481;28;20042;-79
2022/05/03 08:51:13;;;;;;;7.43;5.80;;;;;;;15.40;43.27;101895.59;4990034;28;20502;-80
2022/05/03 08:53:40;;;;;;;8.85;5.88;;;;;;;15.49;43.19;101899.84;4991617;28;20113;-78
2022/05/03 08:56:06;;;;;;;10.40;6.10;;;;;;;15.54;43.64;101895.25;4989322;28;20458;-78
2022/05/03 08:58:32;;;;;;;10.25;6.25;;;;;;;15.62;43.01;101903.94;4988328;28;20387;-77
2022/05/03 09:00:58;;;;;;;10.60;6.25;;;;;;;15.78;43.02;101899.13;4989642;28;20438;-77
2022/05/03 09:03:24;;;;;;;9.63;6.18;;;;;;;15.94;42.43;101899.56;4998465;28;20109;-77
2022/05/03 09:05:52;;;;;;;9.57;6.80;;;;;;;16.08;42.50;101893.84;4986533;28;20062;-77
2022/05/03 09:08:23;;;;;;;7.63;5.78;;;;;;;16.28;42.82;101899.50;4965100;28;20420;-77
2022/05/03 09:10:48;;;;;;;;;;;;;;;16.46;43.18;101899.88;4991128;28;20117;-77
2022/05/03 09:13:22;;;;;;;7.90;6.50;;;;;;;16.59;42.15;101897.72;5010698;28;19967;-78
2022/05/03 09:15:55;;;;;;;9.25;6.60;;;;;;;16.65;41.78;101898.41;5003369;28;20061;-78
2022/05/03 09:18:26;;;;;;;12.30;6.40;;;;;;;16.72;42.21;101900.00;4995664;28;20069;-78
2022/05/03 09:23:46;;;;;;;9.18;6.38;;;;;;;16.91;41.31;101899.44;4994369;28;20045;-78
2022/05/03 09:26:12;;;;;;;9.63;6.82;;;;;;;16.98;41.46;101898.31;4977414;28;20463;-77
2022/05/03 09:28:48;;;;;;;17.13;6.63;;;;;;;17.08;41.22;101897.09;5002519;28;20113;-79
2022/05/03 09:31:25;;;;;;;8.52;6.53;;;;;;;17.18;41.02;101893.22;4990828;28;20042;-80
2022/05/03 09:33:51;;;;;;;9.65;6.70;;;;;;;17.32;42.25;101891.88;4991270;28;20379;-80
2022/05/03 09:36:16;;;;;;;9.02;6.47;;;;;;;17.49;41.14;101894.00;4988224;28;20037;-80
2022/05/03 09:39:28;;;;;;;10.45;6.80;;;;;;;17.62;41.49;101896.19;4954228;28;20129;-79
2022/05/03 09:42:14;;;;;;;9.75;6.13;;;;;;;17.75;40.82;101893.06;4968009;28;20069;-79
2022/05/03 09:45:02;;;;;;;7.38;5.70;;;;;;;17.81;41.11;101895.59;5026074;28;20064;-80
2022/05/03 09:47:46;;;;;;;9.20;6.30;;;;;;;17.91;40.46;101888.97;5011668;28;20131;-80
2022/05/03 09:50:25;;;;;;;11.43;6.57;;;;;;;18.09;40.54;101894.59;4991237;28;20042;-79
2022/05/03 09:52:52;;;;;;;12.07;6.47;;;;;;;18.22;39.03;101894.09;5007715;28;20520;-80
2022/05/03 09:55:30;;;;;;;8.70;6.30;;;;;;;18.15;40.07;101889.00;4993495;28;20040;-80
2022/05/03 09:57:56;;;;;;;8.68;5.72;;;;;;;18.24;39.74;101894.88;5011277;28;20522;-80
2022/05/03 10:00:22;;;;;;;8.40;6.10;;;;;;;18.35;39.10;101886.47;5009903;28;20076;-80
2022/05/03 10:02:48;;;;;;;6.90;5.93;;;;;;;18.48;39.18;101890.41;5011146;28;20033;-81
2022/05/03 10:05:17;;;;;;;10.93;6.28;;;;;;;18.67;39.30;101895.97;4993568;28;20029;-81
2022/05/03 10:07:43;;;;;;;11.52;6.00;;;;;;;18.69;38.88;101886.03;5010660;28;20053;-81
2022/05/03 10:10:10;;;;;;;10.20;5.93;;;;;;;18.70;38.97;101886.91;5010027;28;20022;-81
2022/05/03 10:12:36;;;;;;;10.43;6.97;;;;;;;18.84;38.54;101884.59;5014551;28;20086;-83
2022/05/03 10:15:03;;;;;;;7.28;5.50;;;;;;;19.02;38.39;101888.34;5014321;28;20210;-83
2022/05/03 10:20:40;;;;;;;10.27;6.55;;;;;;;19.55;37.87;101876.28;5000606;28;20116;-83
2022/05/03 10:23:23;;;;;;;5.53;4.20;;;;;;;19.74;37.47;101874.59;4996104;28;20062;-85
2022/05/03 10:26:05;;;;;;;11.18;5.25;;;;;;;19.75;36.78;101883.50;5010923;28;20035;-85
2022/05/03 10:29:08;;;;;;;8.98;6.07;;;;;;;19.77;38.49;101870.88;5010606;28;20034;-85
2022/05/03 10:32:08;;;;;;;11.95;7.68;;;;;;;20.07;37.83;101867.78;4994424;28;20093;-84
2022/05/03 10:35:03;;;;;;;11.07;6.63;;;;;;;20.39;37.56;101864.47;4994022;28;20423;-84
2022/05/03 10:37:36;;;;;;;12.52;6.43;;;;;;;20.21;36.59;101864.47;5010433;28;20471;-84
2022/05/03 10:40:12;;;;;;;10.63;6.57;;;;;;;19.90;38.05;101866.69;4994720;28;20665;-84
2022/05/03 10:42:38;;;;;;;9.43;6.28;;;;;;;19.62;37.80;101860.78;4994645;28;20050;-84
2022/05/03 10:45:10;;;;;;;7.70;5.75;;;;;;;19.79;39.06;101862.78;4978605;28;20064;-84
2022/05/03 10:47:45;;;;;;;10.23;5.28;;;;;;;20.21;37.26;101859.94;4994848;28;20046;-84
2022/05/03 10:50:10;;;;;;;8.15;5.80;;;;;;;20.50;37.50;101860.38;5006471;28;20053;-84
2022/05/03 10:52:36;;;;;;;9.70;6.05;;;;;;;20.40;36.86;101859.97;5015838;28;20034;-84
2022/05/03 10:55:11;;;;;;;10.10;5.18;;;;;;;20.50;38.26;101855.91;5015485;28;20069;-84
2022/05/03 10:58:14;;;;;;;9.05;6.82;;;;;;;20.82;37.75;101856.19;4997600;28;20474;-84
2022/05/03 11:01:08;;;;;;;11.30;6.95;;;;;;;20.82;37.02;101856.19;5014118;28;20085;-85
2022/05/03 11:04:00;;;;;;;8.55;5.90;;;;;;;20.77;36.76;101851.06;5014365;28;20130;-85
2022/05/03 11:06:26;;;;;;;9.13;6.10;;;;;;;20.86;37.96;101849.72;5015091;28;20545;-84
2022/05/03 11:09:18;;;;;;;8.93;4.90;;;;;;;21.24;37.04;101842.44;5013852;28;20065;-84
2022/05/03 11:11:43;;;;;;;8.77;5.43;;;;;;;21.36;34.69;101846.28;5014877;28;20050;-84
2022/05/03 11:14:21;;;;;;;11.20;6.47;;;;;;;21.32;35.69;101838.47;5013717;28;20083;-84
2022/05/03 11:17:35;;;;;;;8.40;6.40;;;;;;;20.47;36.03;101830.94;5013676;28;20042;-85
2022/05/03 11:19:55;;;;;;;9.82;6.80;;;;;;;20.04;38.32;101835.66;5011729;28;20045;-84
2022/05/03 11:22:26;;;;;;;11.00;6.63;;;;;;;20.53;38.66;101836.06;5014462;28;20482;-84
2022/05/03 11:24:55;;;;;;;9.88;5.88;;;;;;;21.19;37.11;101832.81;5014875;28;20042;-85
2022/05/03 11:27:22;;;;;;;8.82;6.35;;;;;;;21.69;35.53;101832.06;5013122;28;20034;-84
2022/05/03 11:30:04;;;;;;;7.47;5.80;;;;;;;22.07;35.26;101827.31;5012669;28;20044;-85
2022/05/03 11:32:42;;;;;;;11.52;6.60;;;;;;;21.97;34.73;101831.47;5029102;28;20454;-84
2022/05/03 11:35:12;;;;;;;8.35;6.35;;;;;;;21.79;34.86;101821.69;4996604;28;20045;-84
2022/05/03 11:37:45;;;;;;;9.25;6.85;;;;;;;21.43;34.36;101819.94;5029565;28;20125;-85
2022/05/03 11:40:11;;;;;;;10.95;6.70;;;;;;;21.52;36.44;101827.56;4996774;28;20126;-84
2022/05/03 11:42:39;;;;;;;9.05;6.25;;;;;;;21.83;34.65;101818.69;5033046;28;20646;-82
2022/05/03 11:45:05;;;;;;;13.38;6.70;;;;;;;22.17;33.65;101811.47;5033170;28;20037;-86
2022/05/03 11:47:35;;;;;;;7.88;5.30;;;;;;;22.42;34.65;101813.72;5016259;28;20406;-85
2022/05/03 11:50:01;;;;;;;5.70;3.85;;;;;;;22.34;32.64;101815.97;5009295;28;20037;-86
2022/05/03 11:55:58;;;;;;;5.38;3.70;;;;;;;22.10;33.20;101813.63;5000028;28;20049;-85
2022/05/03 11:57:59;;;;;;;6.95;5.15;;;;;;;21.69;34.19;101800.59;4988430;28;20053;-84
2022/05/03 12:00:24;;;;;;;9.98;5.53;;;;;;;21.43;34.85;101801.09;5015351;28;20030;-86
2022/05/03 12:02:50;;;;;;;16.60;5.93;;;;;;;21.18;35.23;101799.63;4999262;28;20041;-85
2022/05/03 12:05:18;;;;;;;12.60;6.20;;;;;;;21.05;35.51;101809.28;4998951;28;20029;-85
2022/05/03 12:07:51;;;;;;;9.38;6.80;;;;;;;20.63;35.88;101798.84;5015084;28;20032;-85
2022/05/03 12:10:29;;;;;;;9.45;7.25;;;;;;;20.52;37.39;101799.31;5033035;28;20037;-85
2022/05/03 12:13:07;;;;;;;11.00;8.00;;;;;;;20.53;38.15;101793.00;5033050;28;20064;-86
2022/05/03 12:15:44;;;;;;;11.80;8.27;;;;;;;20.50;37.85;101796.72;5032806;28;20375;-86